Time;durP1;ratioP1;P1;durP2;ratioP2;P2;SDS_P1;SDS_P2;PMS_P1;PMS_P2;Temp;Humidity;BMP_temperature;BMP_pressure;BME280_temperature;BME280_humidity;BME280_pressure;Samples;Min_cycle;Max_cycle;Signal;HPM_P1;HPM_P2
2022/09/14 00:01:17;;;;;;;3.08;2.42;;;17.00;99.90;17.00;99789.00;;;;4926614;28;87988;-59
2022/09/14 00:03:43;;;;;;;3.75;2.97;;;17.00;99.90;17.00;99794.00;;;;4927134;28;87851;-59
2022/09/14 00:06:13;;;;;;;3.55;2.72;;;16.90;99.90;17.00;99790.00;;;;4927035;28;92714;-59
2022/09/14 00:08:39;;;;;;;4.35;3.45;;;16.90;99.90;16.90;99783.00;;;;4928271;28;105006;-59
2022/09/14 00:11:10;;;;;;;3.25;2.85;;;16.80;99.90;16.90;99781.00;;;;4931722;28;88007;-60
2022/09/14 00:13:37;;;;;;;2.28;2.08;;;16.80;99.90;16.80;99779.00;;;;4933498;28;88747;-60
2022/09/14 00:16:11;;;;;;;5.13;2.78;;;16.80;99.90;16.80;99776.00;;;;4935610;28;88644;-60
2022/09/14 00:18:37;;;;;;;4.03;2.90;;;16.70;99.90;16.70;99765.00;;;;4931784;28;88226;-60
2022/09/14 00:21:06;;;;;;;2.42;2.13;;;16.60;99.90;16.70;99772.00;;;;4929619;28;110380;-58
2022/09/14 00:23:36;;;;;;;3.45;2.60;;;16.60;99.90;16.60;99766.00;;;;4929119;28;87859;-59
2022/09/14 00:26:08;;;;;;;3.80;2.88;;;16.60;99.90;16.60;99777.00;;;;4926798;28;88347;-60
2022/09/14 00:28:43;;;;;;;5.18;3.38;;;16.50;99.90;16.50;99767.00;;;;4928234;28;87702;-60
2022/09/14 00:31:09;;;;;;;5.22;2.40;;;16.50;99.90;16.50;99759.00;;;;4912394;28;86824;-57
2022/09/14 00:33:36;;;;;;;4.15;2.90;;;16.40;99.90;16.50;99749.00;;;;4933724;28;87942;-60
2022/09/14 00:36:09;;;;;;;3.60;3.22;;;16.40;99.90;16.40;99751.00;;;;4929646;28;88164;-59
2022/09/14 00:38:36;;;;;;;2.75;2.50;;;16.40;99.90;16.40;99746.00;;;;4924229;28;89158;-59
2022/09/14 00:41:03;;;;;;;3.55;2.83;;;16.30;99.90;16.40;99749.00;;;;4908581;28;87757;-60
2022/09/14 00:43:29;;;;;;;4.05;3.63;;;16.30;99.90;16.30;99748.00;;;;4928122;28;87787;-62
2022/09/14 00:45:55;;;;;;;3.50;3.15;;;16.30;99.90;16.30;99747.00;;;;4926347;28;116599;-60
2022/09/14 00:48:24;;;;;;;4.38;3.33;;;16.20;99.90;16.20;99754.00;;;;4930314;28;88489;-60
2022/09/14 00:50:51;;;;;;;3.05;2.75;;;16.20;99.90;16.10;99738.00;;;;4912728;28;87859;-60
2022/09/14 00:53:18;;;;;;;3.95;3.55;;;16.10;99.90;16.10;99745.00;;;;4898927;28;103648;-60
2022/09/14 00:55:44;;;;;;;3.45;3.05;;;16.10;99.90;16.00;99751.00;;;;4915048;28;116516;-60
2022/09/14 00:58:10;;;;;;;2.78;2.47;;;16.00;99.90;16.00;99744.00;;;;4931058;28;116550;-60
2022/09/14 01:00:35;;;;;;;3.50;2.58;;;16.00;99.90;15.90;99736.00;;;;4899112;28;106404;-60
2022/09/14 01:03:01;;;;;;;3.35;2.83;;;15.90;99.90;15.90;99726.00;;;;4924338;28;107414;-58
2022/09/14 01:06:26;;;;;;;2.70;2.50;;;15.80;99.90;15.80;99730.00;;;;4927911;28;88824;-59
2022/09/14 01:09:09;;;;;;;2.88;2.60;;;15.80;99.90;15.70;99739.00;;;;4930396;28;88010;-60
2022/09/14 01:12:13;;;;;;;3.70;2.67;;;15.70;99.90;15.70;99739.00;;;;4914190;28;94796;-59
2022/09/14 01:15:16;;;;;;;3.65;2.83;;;15.60;99.90;15.60;99741.00;;;;4914869;28;101828;-59
2022/09/14 01:18:30;;;;;;;4.88;3.90;;;15.60;99.90;15.70;99731.00;;;;4913163;28;110867;-60
2022/09/14 01:21:11;;;;;;;3.28;2.42;;;15.70;99.90;15.70;99736.00;;;;4914762;28;109074;-60
2022/09/14 01:24:14;;;;;;;2.85;2.65;;;15.60;99.90;15.70;99742.00;;;;4910434;28;87018;-60
2022/09/14 01:27:19;;;;;;;4.43;3.15;;;15.60;99.90;15.70;99738.00;;;;4927656;28;87664;-61
2022/09/14 01:30:01;;;;;;;4.68;3.30;;;15.60;99.90;15.70;99733.00;;;;4912043;28;88505;-60
2022/09/14 01:32:39;;;;;;;3.97;3.63;;;15.60;99.90;15.70;99726.00;;;;4913500;28;88823;-60
2022/09/14 01:35:24;;;;;;;4.15;3.55;;;15.60;99.90;15.70;99740.00;;;;4913823;28;96389;-59
2022/09/14 01:38:07;;;;;;;6.68;3.65;;;15.60;99.90;15.60;99732.00;;;;4926667;28;101146;-58
2022/09/14 01:40:39;;;;;;;3.60;3.30;;;15.60;99.90;15.60;99735.00;;;;4914807;28;108954;-60
2022/09/14 01:43:45;;;;;;;3.85;2.67;;;15.60;99.90;15.60;99734.00;;;;4916404;28;108360;-60
2022/09/14 01:46:19;;;;;;;2.75;2.55;;;15.60;99.90;15.60;99739.00;;;;4915756;28;87896;-60
2022/09/14 01:49:06;;;;;;;6.18;3.60;;;15.60;99.90;15.60;99737.00;;;;4927854;28;96594;-60
2022/09/14 01:51:52;;;;;;;3.80;3.13;;;15.60;99.90;15.60;99725.00;;;;4915298;28;104333;-60
2022/09/14 01:54:47;;;;;;;5.38;2.90;;;15.60;99.90;15.60;99726.00;;;;4911418;28;87779;-59
2022/09/14 01:57:39;;;;;;;5.03;3.72;;;15.60;99.90;15.60;99726.00;;;;4925786;28;87705;-60
2022/09/14 02:00:10;;;;;;;6.03;3.33;;;15.50;99.90;15.60;99723.00;;;;4917625;28;88761;-60
2022/09/14 02:02:46;;;;;;;6.85;4.20;;;15.60;99.90;15.60;99719.00;;;;4917775;28;88678;-60
2022/09/14 02:05:23;;;;;;;3.47;3.15;;;15.60;99.90;15.60;99706.00;;;;4915342;28;106964;-60
2022/09/14 02:07:49;;;;;;;4.32;3.47;;;15.60;99.90;15.60;99706.00;;;;4925454;28;103329;-60
2022/09/14 02:10:16;;;;;;;5.47;4.50;;;15.50;99.90;15.60;99705.00;;;;4914681;28;97025;-60
2022/09/14 02:12:43;;;;;;;4.68;3.10;;;15.50;99.90;15.60;99705.00;;;;4915684;28;88873;-59
2022/09/14 02:15:12;;;;;;;5.07;4.13;;;15.50;99.90;15.50;99697.00;;;;4914780;28;109114;-60
2022/09/14 02:17:38;;;;;;;4.53;3.95;;;15.50;99.90;15.50;99707.00;;;;4927959;28;88422;-60
2022/09/14 02:20:10;;;;;;;7.10;3.10;;;15.40;99.90;15.40;99702.00;;;;4926700;28;87658;-59
2022/09/14 02:22:35;;;;;;;5.22;3.65;;;15.40;99.90;15.40;99700.00;;;;4914788;28;88820;-59
2022/09/14 02:25:02;;;;;;;4.32;3.30;;;15.40;99.90;15.40;99696.00;;;;4926573;28;118466;-60
2022/09/14 02:27:27;;;;;;;5.20;3.15;;;15.40;99.90;15.40;99704.00;;;;4931410;28;87801;-60
2022/09/14 02:29:54;;;;;;;3.53;2.97;;;15.30;99.90;15.40;99701.00;;;;4927382;28;108749;-59
2022/09/14 02:32:47;;;;;;;3.95;3.55;;;15.30;99.90;15.30;99696.00;;;;4930542;28;117923;-60
2022/09/14 02:35:34;;;;;;;4.70;3.97;;;15.30;99.90;15.30;99704.00;;;;4928980;28;88318;-58
2022/09/14 02:38:39;;;;;;;3.83;3.08;;;15.30;99.90;15.20;99693.00;;;;4926437;28;88252;-59
2022/09/14 02:41:19;;;;;;;4.47;3.95;;;15.20;99.90;15.20;99690.00;;;;4927263;28;88022;-59
2022/09/14 02:44:09;;;;;;;9.93;4.03;;;15.20;99.90;15.20;99697.00;;;;4925872;28;100749;-60
2022/09/14 02:46:53;;;;;;;4.55;4.15;;;15.20;99.90;15.10;99702.00;;;;4928196;28;87700;-60
2022/09/14 02:49:34;;;;;;;4.90;3.33;;;15.10;99.90;15.10;99695.00;;;;4912755;28;104446;-59
2022/09/14 02:52:22;;;;;;;5.90;3.78;;;15.10;99.90;15.10;99691.00;;;;4927533;28;89042;-59
2022/09/14 02:55:11;;;;;;;4.63;4.22;;;15.10;99.90;15.10;99696.00;;;;4914531;28;88528;-58
2022/09/14 02:58:01;;;;;;;5.53;3.67;;;15.10;99.90;15.10;99689.00;;;;4923847;28;87848;-59
2022/09/14 03:00:29;;;;;;;6.57;4.57;;;15.10;99.90;15.10;99684.00;;;;4925574;28;87684;-60
2022/09/14 03:02:55;;;;;;;4.55;3.33;;;15.10;99.90;15.10;99683.00;;;;4930852;28;88044;-60
2022/09/14 03:05:21;;;;;;;5.97;5.10;;;15.10;99.90;15.10;99680.00;;;;4930386;28;89103;-59
2022/09/14 03:07:47;;;;;;;4.20;3.63;;;15.00;99.90;15.10;99680.00;;;;4934738;28;116144;-59
2022/09/14 03:10:13;;;;;;;6.97;4.90;;;15.00;99.90;15.00;99682.00;;;;4936150;28;112368;-60
2022/09/14 03:12:39;;;;;;;5.75;4.05;;;15.00;99.90;15.00;99679.00;;;;4900612;28;104684;-58
2022/09/14 03:15:06;;;;;;;5.57;3.20;;;15.00;99.90;15.00;99685.00;;;;4931252;28;88013;-60
2022/09/14 03:17:32;;;;;;;3.67;3.33;;;15.00;99.90;14.90;99689.00;;;;4916412;28;103941;-59
2022/09/14 03:19:58;;;;;;;5.60;4.22;;;14.90;99.90;14.90;99686.00;;;;4928283;28;87760;-59
2022/09/14 03:22:24;;;;;;;4.90;3.53;;;14.90;99.90;14.90;99687.00;;;;4929577;28;88420;-57
2022/09/14 03:24:49;;;;;;;4.50;4.00;;;14.90;99.90;14.90;99686.00;;;;4929130;28;118016;-60
2022/09/14 03:27:15;;;;;;;3.78;2.95;;;14.90;99.90;14.90;99681.00;;;;4935337;28;91415;-60
2022/09/14 03:29:41;;;;;;;4.20;3.13;;;14.80;99.90;14.90;99690.00;;;;4931439;28;110791;-58
2022/09/14 03:32:09;;;;;;;5.32;3.47;;;14.80;99.90;14.90;99693.00;;;;4928358;28;107698;-59
2022/09/14 03:34:35;;;;;;;4.88;4.38;;;14.80;99.90;14.90;99697.00;;;;4930701;28;87905;-60
2022/09/14 03:37:01;;;;;;;4.88;3.38;;;14.80;99.90;14.90;99685.00;;;;4928248;28;108425;-59
2022/09/14 03:39:27;;;;;;;3.95;3.50;;;14.90;99.90;15.00;99683.00;;;;4927995;28;95409;-60
2022/09/14 03:41:53;;;;;;;3.78;3.47;;;14.90;99.90;15.00;99703.00;;;;4930589;28;88761;-60
2022/09/14 03:44:19;;;;;;;5.82;3.95;;;14.90;99.90;15.00;99688.00;;;;4933221;28;102492;-59
2022/09/14 03:46:45;;;;;;;4.32;3.53;;;14.90;99.90;15.00;99683.00;;;;4934801;28;107160;-60
2022/09/14 03:49:10;;;;;;;3.67;3.27;;;15.00;99.90;15.00;99690.00;;;;4933811;28;87807;-60
2022/09/14 03:51:36;;;;;;;5.55;4.53;;;15.00;99.90;15.10;99683.00;;;;4929937;28;108237;-60
2022/09/14 03:54:03;;;;;;;4.65;3.85;;;15.00;99.90;15.10;99684.00;;;;4930987;28;118178;-60
2022/09/14 03:56:29;;;;;;;6.50;3.33;;;15.00;99.90;15.10;99680.00;;;;4931735;28;103265;-60
2022/09/14 03:58:55;;;;;;;5.95;3.63;;;15.00;99.90;15.10;99677.00;;;;4929347;28;87049;-60
2022/09/14 04:01:22;;;;;;;6.15;4.18;;;15.10;99.90;15.10;99680.00;;;;4926090;28;109977;-60
2022/09/14 04:03:48;;;;;;;3.97;3.23;;;15.10;99.90;15.20;99678.00;;;;4933144;28;89072;-59
2022/09/14 04:06:16;;;;;;;5.78;3.72;;;15.10;99.90;15.20;99676.00;;;;4935459;28;88824;-60
2022/09/14 04:08:43;;;;;;;6.10;3.85;;;15.10;99.90;15.20;99676.00;;;;4917424;28;87934;-59
2022/09/14 04:11:21;;;;;;;6.65;4.43;;;15.20;99.90;15.30;99664.00;;;;4929121;28;103051;-60
2022/09/14 04:13:48;;;;;;;6.60;3.97;;;15.20;99.90;15.30;99656.00;;;;4917390;28;88525;-59
2022/09/14 04:16:15;;;;;;;7.47;4.53;;;15.20;99.90;15.30;99660.00;;;;4932602;28;88041;-60
2022/09/14 04:18:41;;;;;;;4.22;3.08;;;15.20;99.90;15.30;99653.00;;;;4932711;28;94164;-59
2022/09/14 04:21:13;;;;;;;4.10;3.38;;;15.30;99.90;15.30;99647.00;;;;4930181;28;108446;-60
2022/09/14 04:23:39;;;;;;;4.25;3.63;;;15.30;99.90;15.30;99640.00;;;;4934479;28;87737;-60
2022/09/14 04:26:18;;;;;;;3.03;2.80;;;15.30;99.90;15.30;99645.00;;;;4917151;28;116530;-60
2022/09/14 04:28:44;;;;;;;2.60;2.25;;;15.30;99.90;15.30;99646.00;;;;4928080;28;87792;-60
2022/09/14 04:31:11;;;;;;;4.63;3.78;;;15.30;99.90;15.30;99661.00;;;;4928430;28;108583;-60
2022/09/14 04:33:39;;;;;;;3.80;3.45;;;15.20;99.90;15.30;99651.00;;;;4928784;28;88436;-59
2022/09/14 04:36:09;;;;;;;3.65;3.35;;;15.20;99.90;15.30;99652.00;;;;4931263;28;89203;-60
2022/09/14 04:38:36;;;;;;;5.10;3.50;;;15.20;99.90;15.30;99652.00;;;;4932600;28;87754;-60
2022/09/14 04:41:09;;;;;;;4.13;3.38;;;15.20;99.90;15.30;99649.00;;;;4925661;28;87783;-59
2022/09/14 04:43:35;;;;;;;4.93;3.75;;;15.30;99.90;15.30;99653.00;;;;4929785;28;88253;-60
2022/09/14 04:46:09;;;;;;;5.00;3.05;;;15.20;99.90;15.30;99649.00;;;;4927736;28;116509;-60
2022/09/14 04:48:35;;;;;;;3.35;3.10;;;15.20;99.90;15.30;99665.00;;;;4924008;28;86846;-60
2022/09/14 04:51:07;;;;;;;5.43;3.67;;;15.20;99.90;15.30;99653.00;;;;4925129;28;88634;-60
2022/09/14 04:53:35;;;;;;;5.03;4.05;;;15.30;99.90;15.40;99663.00;;;;4924325;28;89068;-60
2022/09/14 04:56:03;;;;;;;7.20;3.78;;;15.10;99.90;15.40;99662.00;;;;4928424;28;105659;-59
2022/09/14 04:58:29;;;;;;;4.95;3.38;;;15.30;99.90;15.40;99665.00;;;;4930629;28;87952;-60
2022/09/14 05:01:01;;;;;;;5.55;3.92;;;15.30;99.90;15.40;99655.00;;;;4922464;28;87818;-60
2022/09/14 05:03:26;;;;;;;3.92;3.17;;;15.30;99.90;15.40;99655.00;;;;4928322;28;107994;-58
2022/09/14 05:05:52;;;;;;;4.53;3.67;;;15.30;99.90;15.40;99659.00;;;;4927923;28;96853;-60
2022/09/14 05:08:18;;;;;;;6.25;3.20;;;15.30;99.90;15.40;99656.00;;;;4929625;28;108251;-60
2022/09/14 05:10:44;;;;;;;5.93;3.30;;;15.30;99.90;15.40;99659.00;;;;4929432;28;107692;-61
2022/09/14 05:13:09;;;;;;;5.68;4.30;;;15.40;99.90;15.50;99660.00;;;;4926059;28;117364;-60
2022/09/14 05:15:35;;;;;;;5.47;3.25;;;15.40;99.90;15.50;99667.00;;;;4924414;28;99149;-61
2022/09/14 05:18:02;;;;;;;4.47;3.70;;;15.40;99.90;15.50;99659.00;;;;4923029;28;87926;-58
2022/09/14 05:20:28;;;;;;;5.05;4.22;;;15.40;99.90;15.50;99659.00;;;;4933500;28;88861;-59
2022/09/14 05:22:54;;;;;;;8.27;2.78;;;15.40;99.90;15.50;99659.00;;;;4932269;28;100984;-60
2022/09/14 05:25:19;;;;;;;4.40;3.22;;;15.40;99.90;15.60;99655.00;;;;4932190;28;117811;-60
2022/09/14 05:27:45;;;;;;;3.90;3.38;;;15.50;99.90;15.50;99649.00;;;;4931336;28;110052;-59
2022/09/14 05:30:11;;;;;;;8.13;3.38;;;15.50;99.90;15.60;99646.00;;;;4929545;28;108470;-60
2022/09/14 05:32:37;;;;;;;4.85;3.50;;;15.50;99.90;15.60;99648.00;;;;4925847;28;109416;-59
2022/09/14 05:35:03;;;;;;;6.35;3.65;;;15.50;99.90;15.60;99647.00;;;;4927728;28;88509;-60
2022/09/14 05:37:28;;;;;;;5.30;3.42;;;15.50;99.90;15.70;99639.00;;;;4923629;28;101151;-60
2022/09/14 05:39:54;;;;;;;4.75;3.70;;;15.60;99.90;15.70;99644.00;;;;4931111;28;108848;-60
2022/09/14 05:42:19;;;;;;;3.55;3.22;;;15.60;99.90;15.80;99644.00;;;;4924416;28;117810;-60
2022/09/14 05:44:45;;;;;;;6.45;3.95;;;15.60;99.90;15.80;99643.00;;;;4933222;28;110350;-60
2022/09/14 05:47:11;;;;;;;6.85;3.80;;;15.70;99.90;15.80;99642.00;;;;4929506;28;87771;-59
2022/09/14 05:49:36;;;;;;;4.78;3.75;;;15.70;99.90;15.80;99638.00;;;;4930889;28;107728;-60
2022/09/14 05:52:02;;;;;;;6.40;3.45;;;15.70;99.90;15.80;99625.00;;;;4924900;28;118362;-59
2022/09/14 05:54:28;;;;;;;4.18;3.42;;;15.70;99.90;15.70;99624.00;;;;4927814;28;117449;-60
2022/09/14 05:56:54;;;;;;;4.15;3.53;;;15.60;99.90;15.70;99623.00;;;;4924254;28;87838;-60
2022/09/14 05:59:19;;;;;;;7.40;4.18;;;15.60;99.90;15.70;99628.00;;;;4928105;28;87699;-60
2022/09/14 06:01:45;;;;;;;5.85;4.20;;;15.60;99.90;15.70;99625.00;;;;4932208;28;116874;-60
2022/09/14 06:04:11;;;;;;;4.20;3.80;;;15.60;99.90;15.70;99635.00;;;;4919962;28;92729;-60
2022/09/14 06:06:37;;;;;;;8.25;3.78;;;15.60;99.90;15.70;99626.00;;;;4921587;28;88828;-60
2022/09/14 06:09:03;;;;;;;7.63;4.35;;;15.60;99.90;15.70;99625.00;;;;4922761;28;107553;-59
2022/09/14 06:11:32;;;;;;;4.30;3.90;;;15.60;99.90;15.80;99626.00;;;;4926051;28;87818;-60
2022/09/14 06:13:58;;;;;;;5.68;4.82;;;15.60;99.90;15.80;99622.00;;;;4926719;28;88565;-59
2022/09/14 06:16:26;;;;;;;6.90;4.20;;;15.70;99.90;15.80;99621.00;;;;4929602;28;88647;-59
2022/09/14 06:18:54;;;;;;;5.18;4.30;;;15.60;99.90;15.90;99624.00;;;;4931819;28;87806;-60
2022/09/14 06:21:21;;;;;;;6.53;4.07;;;15.70;99.90;15.90;99619.00;;;;4932181;28;87919;-60
2022/09/14 06:23:48;;;;;;;6.50;3.33;;;15.80;99.90;16.00;99616.00;;;;4926762;28;88356;-61
2022/09/14 06:26:15;;;;;;;6.15;3.80;;;15.80;99.90;16.00;99607.00;;;;4922072;28;109526;-60
2022/09/14 06:28:41;;;;;;;5.22;3.70;;;15.90;99.90;16.10;99612.00;;;;4922868;28;87784;-60
2022/09/14 06:31:08;;;;;;;5.88;3.90;;;15.90;99.90;16.10;99618.00;;;;4923720;28;87768;-60
2022/09/14 06:33:34;;;;;;;4.82;4.10;;;15.90;99.90;16.10;99617.00;;;;4927009;28;89334;-59
2022/09/14 06:36:11;;;;;;;6.03;2.70;;;16.00;99.90;16.20;99620.00;;;;4932925;28;88003;-61
2022/09/14 06:38:40;;;;;;;5.18;2.97;;;16.10;99.90;16.30;99626.00;;;;4932216;28;87697;-59
2022/09/14 06:41:09;;;;;;;6.13;2.72;;;16.10;99.90;16.30;99620.00;;;;4931161;28;88664;-60
2022/09/14 06:43:38;;;;;;;4.60;2.92;;;16.20;99.90;16.40;99623.00;;;;4911594;28;88326;-60
2022/09/14 06:46:20;;;;;;;3.40;2.33;;;16.20;99.90;16.50;99624.00;;;;4927965;28;87808;-60
2022/09/14 06:48:54;;;;;;;4.55;2.78;;;16.30;99.90;16.50;99626.00;;;;4931572;28;87833;-60
2022/09/14 06:51:46;;;;;;;3.63;2.45;;;16.40;99.90;16.70;99626.00;;;;4928533;28;109436;-60
2022/09/14 06:54:14;;;;;;;4.35;2.63;;;16.50;99.90;16.80;99630.00;;;;4928820;28;87577;-59
2022/09/14 06:56:42;;;;;;;4.43;2.60;;;16.60;99.90;16.80;99628.00;;;;4931277;28;87914;-60
2022/09/14 06:59:11;;;;;;;4.78;2.95;;;16.60;99.90;16.90;99625.00;;;;4932996;28;88947;-58
2022/09/14 07:01:37;;;;;;;3.25;2.95;;;16.70;99.90;16.90;99620.00;;;;4919566;28;88068;-60
2022/09/14 07:04:04;;;;;;;7.63;2.75;;;16.80;99.90;17.00;99621.00;;;;4926384;28;117935;-60
2022/09/14 07:06:39;;;;;;;4.72;2.78;;;16.80;99.90;17.10;99623.00;;;;4926667;28;87940;-60
2022/09/14 07:09:05;;;;;;;3.80;3.20;;;16.90;99.90;17.20;99629.00;;;;4929108;28;88039;-59
2022/09/14 07:11:32;;;;;;;2.53;2.00;;;17.00;99.90;17.20;99625.00;;;;4928325;28;117277;-60
2022/09/14 07:13:57;;;;;;;1.95;1.58;;;17.00;99.90;17.30;99622.00;;;;4931249;28;88727;-60
2022/09/14 07:16:28;;;;;;;5.35;1.80;;;17.10;99.90;17.30;99623.00;;;;4933133;28;87338;-57
2022/09/14 07:19:02;;;;;;;6.43;1.95;;;17.10;99.90;17.40;99632.00;;;;4936453;28;87660;-58
2022/09/14 07:21:29;;;;;;;4.75;2.15;;;17.20;99.90;17.40;99622.00;;;;4935552;28;88160;-59
2022/09/14 07:23:55;;;;;;;1.48;1.30;;;17.20;99.90;17.50;99631.00;;;;4931029;28;89066;-58
2022/09/14 07:26:24;;;;;;;1.58;1.33;;;17.30;99.90;17.50;99627.00;;;;4927769;28;88263;-58
2022/09/14 07:28:55;;;;;;;2.58;1.95;;;17.40;99.90;17.60;99621.00;;;;4928315;28;89329;-60
2022/09/14 07:31:37;;;;;;;1.65;1.50;;;17.40;99.90;17.60;99617.00;;;;4928427;28;88141;-60
2022/09/14 07:34:04;;;;;;;2.17;1.33;;;17.50;99.90;17.70;99623.00;;;;4931520;28;89342;-59
2022/09/14 07:36:33;;;;;;;7.30;1.40;;;17.50;99.90;17.80;99617.00;;;;4931478;28;87919;-60
2022/09/14 07:38:59;;;;;;;0.90;0.90;;;17.60;99.90;17.90;99626.00;;;;4932764;28;87772;-60
2022/09/14 07:41:28;;;;;;;1.92;1.13;;;17.70;99.90;18.00;99629.00;;;;4929363;28;87945;-59
2022/09/14 07:43:58;;;;;;;1.95;1.33;;;17.80;99.90;18.10;99631.00;;;;4926285;28;88428;-60
2022/09/14 07:46:26;;;;;;;5.60;1.33;;;17.90;99.90;18.10;99627.00;;;;4924467;28;87870;-60
2022/09/14 07:49:01;;;;;;;1.33;1.02;;;17.90;99.90;18.20;99631.00;;;;4927505;28;88993;-60
2022/09/14 07:51:29;;;;;;;2.05;0.80;;;18.00;99.90;18.20;99619.00;;;;4929839;28;88076;-60
2022/09/14 07:53:55;;;;;;;0.90;0.80;;;18.00;99.90;18.30;99621.00;;;;4929674;28;99958;-59
2022/09/14 07:56:21;;;;;;;2.58;1.27;;;18.10;99.90;18.30;99625.00;;;;4934434;28;87769;-60
2022/09/14 07:58:52;;;;;;;0.60;0.60;;;18.10;99.90;18.40;99631.00;;;;4935748;28;88182;-61
2022/09/14 08:01:17;;;;;;;1.80;1.05;;;18.20;99.90;18.40;99635.00;;;;4921519;28;88160;-60
2022/09/14 08:03:45;;;;;;;0.65;0.65;;;18.20;99.90;18.50;99629.00;;;;4927612;28;109358;-59
2022/09/14 08:06:16;;;;;;;0.82;0.68;;;18.30;99.90;18.60;99622.00;;;;4927070;28;86996;-60
2022/09/14 08:08:46;;;;;;;1.55;0.73;;;18.40;99.90;18.60;99619.00;;;;4928136;28;87778;-61
2022/09/14 08:11:16;;;;;;;0.88;0.70;;;18.40;99.90;18.60;99627.00;;;;4912263;28;88145;-61
2022/09/14 08:13:47;;;;;;;0.85;0.77;;;18.40;99.90;18.80;99636.00;;;;4930991;28;93763;-60
2022/09/14 08:16:13;;;;;;;0.50;0.50;;;18.50;99.90;18.90;99635.00;;;;4929719;28;102834;-60
2022/09/14 08:18:39;;;;;;;0.77;0.65;;;18.60;99.90;19.10;99634.00;;;;4936563;28;87937;-60
2022/09/14 08:21:09;;;;;;;0.80;0.57;;;18.80;99.90;19.20;99629.00;;;;4933802;28;89721;-61
2022/09/14 08:23:36;;;;;;;2.83;0.60;;;18.90;99.90;19.30;99625.00;;;;4924311;28;87988;-60
2022/09/14 08:26:07;;;;;;;0.45;0.45;;;19.10;99.90;19.50;99616.00;;;;4926359;28;87682;-60
2022/09/14 08:28:33;;;;;;;0.73;0.57;;;19.20;99.90;19.70;99628.00;;;;4927198;28;87835;-60
2022/09/14 08:31:06;;;;;;;0.82;0.50;;;19.40;99.90;19.90;99621.00;;;;4929605;28;117631;-60
2022/09/14 08:33:34;;;;;;;0.63;0.43;;;19.60;99.90;20.10;99622.00;;;;4931663;28;87639;-61
2022/09/14 08:36:01;;;;;;;1.08;0.38;;;19.80;99.90;20.20;99630.00;;;;4934036;28;87792;-58
2022/09/14 08:38:27;;;;;;;0.40;0.40;;;19.90;99.90;20.20;99628.00;;;;4934726;28;88771;-60
2022/09/14 08:40:53;;;;;;;0.65;0.40;;;20.00;99.30;20.30;99622.00;;;;4933363;28;88416;-60
2022/09/14 08:43:22;;;;;;;0.52;0.15;;;20.00;99.70;20.30;99618.00;;;;4905960;28;88438;-58
2022/09/14 08:45:49;;;;;;;0.45;0.30;;;20.00;98.80;20.40;99615.00;;;;4916251;28;87827;-60
2022/09/14 08:48:29;;;;;;;0.22;0.22;;;20.10;99.40;20.40;99617.00;;;;4928322;28;87940;-60
2022/09/14 08:50:55;;;;;;;1.02;0.80;;;20.10;97.90;20.40;99618.00;;;;4909869;28;110637;-60
2022/09/14 08:53:21;;;;;;;0.90;0.63;;;20.10;97.80;20.30;99619.00;;;;4912715;28;116503;-60
2022/09/14 08:55:51;;;;;;;0.55;0.55;;;20.10;97.00;20.40;99627.00;;;;4915275;28;91442;-60
2022/09/14 08:58:41;;;;;;;0.63;0.50;;;20.10;97.60;20.40;99624.00;;;;4929572;28;98888;-60
2022/09/14 09:01:52;;;;;;;1.05;0.60;;;20.10;97.30;20.40;99622.00;;;;4931004;28;87867;-60
2022/09/14 09:04:35;;;;;;;0.57;0.57;;;20.10;97.80;20.50;99628.00;;;;4914317;28;102521;-59
2022/09/14 09:07:11;;;;;;;0.47;0.47;;;20.20;98.00;20.50;99622.00;;;;4915695;28;88170;-60
2022/09/14 09:09:48;;;;;;;1.77;0.70;;;20.30;98.10;20.60;99627.00;;;;4927836;28;87855;-60
2022/09/14 09:12:28;;;;;;;0.50;0.45;;;20.30;98.00;20.60;99625.00;;;;4911535;28;111115;-60
2022/09/14 09:15:02;;;;;;;0.80;0.52;;;20.40;98.00;20.70;99622.00;;;;4915099;28;88472;-59
2022/09/14 09:17:40;;;;;;;1.17;0.88;;;20.50;97.90;20.80;99620.00;;;;4930881;28;88327;-61
2022/09/14 09:20:16;;;;;;;0.50;0.38;;;20.50;97.80;20.80;99608.00;;;;4929453;28;94664;-60
2022/09/14 09:22:47;;;;;;;1.63;0.70;;;20.60;97.50;20.90;99615.00;;;;4924050;28;97941;-59
2022/09/14 09:25:23;;;;;;;1.13;0.65;;;20.60;97.40;21.00;99606.00;;;;4906888;28;101165;-61
2022/09/14 09:28:09;;;;;;;2.85;0.80;;;20.70;97.00;21.10;99606.00;;;;4915881;28;87921;-58
2022/09/14 09:30:34;;;;;;;5.13;0.93;;;20.90;96.60;21.30;99607.00;;;;4914108;28;98210;-61
2022/09/14 09:33:00;;;;;;;1.27;0.50;;;21.00;96.50;21.40;99609.00;;;;4930559;28;115288;-60
2022/09/14 09:35:26;;;;;;;0.82;0.63;;;21.10;96.30;21.50;99608.00;;;;4931370;28;88722;-60
2022/09/14 09:37:51;;;;;;;0.40;0.40;;;21.20;94.80;21.50;99608.00;;;;4923884;28;87631;-60
2022/09/14 09:40:34;;;;;;;0.95;0.22;;;21.20;94.40;21.50;99606.00;;;;4929627;28;107786;-60
2022/09/14 09:43:26;;;;;;;2.63;0.75;;;21.20;94.30;21.40;99590.00;;;;4908052;28;88153;-60
2022/09/14 09:46:00;;;;;;;2.30;0.55;;;21.20;93.70;21.30;99597.00;;;;4922145;28;118390;-59
2022/09/14 09:48:42;;;;;;;1.02;0.90;;;21.10;93.30;21.20;99598.00;;;;4929506;28;86775;-61
2022/09/14 09:51:15;;;;;;;2.50;1.35;;;21.00;92.80;21.10;99598.00;;;;4916159;28;87666;-58
2022/09/14 09:54:15;;;;;;;0.30;0.30;;;20.90;92.80;20.90;99593.00;;;;4930247;28;88608;-60
2022/09/14 09:57:04;;;;;;;1.63;0.50;;;20.80;92.80;20.90;99590.00;;;;4928875;28;106438;-60
2022/09/14 09:59:40;;;;;;;0.60;0.40;;;20.70;93.40;21.00;99601.00;;;;4930275;28;97316;-60
2022/09/14 10:02:21;;;;;;;0.32;0.32;;;20.70;93.70;21.10;99593.00;;;;4925162;28;87809;-59
2022/09/14 10:05:08;;;;;;;2.03;0.95;;;20.80;93.80;21.30;99593.00;;;;4925746;28;87852;-60
2022/09/14 10:07:41;;;;;;;0.40;0.40;;;21.00;93.70;21.50;99589.00;;;;4927601;28;88751;-60
2022/09/14 10:10:12;;;;;;;0.40;0.40;;;21.20;93.60;21.80;99585.00;;;;4914727;28;103377;-60
2022/09/14 10:12:46;;;;;;;1.48;0.50;;;21.40;94.10;22.00;99583.00;;;;4930201;28;87628;-60
2022/09/14 10:15:35;;;;;;;1.02;0.50;;;21.60;93.20;22.20;99579.00;;;;4915231;28;88170;-61
2022/09/14 10:18:17;;;;;;;3.88;0.80;;;21.80;92.80;22.50;99581.00;;;;4915721;28;87757;-60
2022/09/14 10:20:52;;;;;;;0.45;0.30;;;22.10;92.80;22.70;99572.00;;;;4906041;28;87957;-60
2022/09/14 10:23:17;;;;;;;0.82;0.28;;;22.30;92.50;22.90;99572.00;;;;4926020;28;89178;-61
2022/09/14 10:26:10;;;;;;;0.88;0.52;;;22.50;92.20;23.10;99568.00;;;;4924436;28;113975;-61
2022/09/14 10:28:41;;;;;;;2.80;0.73;;;22.70;91.20;23.20;99574.00;;;;4926399;28;94073;-61
2022/09/14 10:31:18;;;;;;;0.60;0.43;;;22.80;90.00;23.30;99574.00;;;;4929595;28;88006;-60
2022/09/14 10:33:46;;;;;;;1.25;0.63;;;22.90;89.80;23.30;99579.00;;;;4928860;28;88008;-60
2022/09/14 10:36:32;;;;;;;2.13;1.02;;;22.90;89.40;23.30;99585.00;;;;4930093;28;88053;-59
2022/09/14 10:39:28;;;;;;;3.30;0.40;;;23.10;89.60;23.20;99580.00;;;;4927584;28;95624;-60
2022/09/14 10:42:34;;;;;;;1.15;0.47;;;22.90;89.50;23.10;99583.00;;;;4911797;28;87046;-60
2022/09/14 10:45:09;;;;;;;0.77;0.43;;;22.90;89.50;23.10;99573.00;;;;4908397;28;99618;-60
2022/09/14 10:48:28;;;;;;;3.42;0.35;;;22.90;89.90;23.00;99573.00;;;;4910185;28;88353;-60
2022/09/14 10:51:31;;;;;;;1.65;0.40;;;22.80;89.20;22.90;99573.00;;;;4927630;28;88819;-61
2022/09/14 10:54:31;;;;;;;0.20;0.20;;;22.70;89.00;22.80;99577.00;;;;4931815;28;87833;-60
2022/09/14 10:57:28;;;;;;;0.50;0.32;;;22.60;88.70;22.70;99576.00;;;;4913697;28;87995;-61
2022/09/14 11:00:24;;;;;;;0.13;0.13;;;22.50;89.30;22.80;99574.00;;;;4926649;28;100231;-60
2022/09/14 11:03:34;;;;;;;5.45;0.57;;;22.50;89.30;22.80;99580.00;;;;4873157;28;118273;-61
2022/09/14 11:06:22;;;;;;;0.50;0.32;;;22.50;88.70;22.70;99583.00;;;;4892324;28;87947;-60
2022/09/14 11:09:31;;;;;;;3.15;0.80;;;22.50;88.10;22.60;99584.00;;;;4908840;28;87888;-60
2022/09/14 11:12:26;;;;;;;0.20;0.20;;;22.40;87.60;22.50;99580.00;;;;4894146;28;88148;-59
2022/09/14 11:15:10;;;;;;;0.50;0.40;;;22.30;88.10;22.50;99580.00;;;;4909180;28;108919;-61
2022/09/14 11:18:24;;;;;;;0.60;0.43;;;22.30;88.00;22.40;99579.00;;;;4894360;28;87851;-61
2022/09/14 11:21:18;;;;;;;0.80;0.43;;;22.20;88.30;22.30;99586.00;;;;4894646;28;98356;-60